aviador You're here:

YPAD Decoded Metar

ADELAIDE in AUSTRALIA
Report Time2017-11-25 05:00:00
UTC Time2017-11-25 05:25:46
Flight Rules vfr VFR
Wind220° at 15 kt
W.Decomp.*RWY 23: 14.3 kt HW 4.6 kt LCW
RWY 30: 0.5 kt HW 15 kt LCW
W.Rank220° ranks 4
Current wind is above 220° avg. (11.7)
Visibility9999 m
Phenomena:N/A
Clouds:Few 032 Hf
Scattered 300 Hf
Expected CloudBase > 2,400 ft AGL from Temp-Dew spread
CeilingNone
Temp23°C (ISA +8)
Dew Point17°C (69% RH)
AAT20.0°C
QNH1010 hPa
Density Alt1,306 ft
Elevation13 ft
Report Wrong Elevation
Raw Report
METAR YPAD 250500Z 22015KT 9999 FEW032 SCT300 23/17 Q1010
NOSIG=

Extra information for YPAD:More info

Metar Taf Metar & Taf Last 4 Metars F.Rules Stats Wind Profile Meteogram Temp Stats Airport Information Weather charts Add Link Nearby VenuesMetar ALERT Operation Metar Decoded Social comments

Adelaide Airport Webcam